sensor_id;sensor_type;location;lat;lon;timestamp;pressure;altitude;pressure_sealevel;temperature;humidity
18795;BME280;29610;49.022;12.114;2024-02-16T00:00:19;97776.25;;;7.44;100.00
18795;BME280;29610;49.022;12.114;2024-02-16T00:02:48;97773.66;;;7.53;100.00
18795;BME280;29610;49.022;12.114;2024-02-16T00:05:16;97766.94;;;7.51;100.00
18795;BME280;29610;49.022;12.114;2024-02-16T00:07:46;97768.75;;;7.55;100.00
18795;BME280;29610;49.022;12.114;2024-02-16T00:10:14;97765.13;;;7.60;100.00
18795;BME280;29610;49.022;12.114;2024-02-16T00:12:45;97762.25;;;7.56;100.00
18795;BME280;29610;49.022;12.114;2024-02-16T00:15:13;97760.63;;;7.41;100.00
18795;BME280;29610;49.022;12.114;2024-02-16T00:17:42;97762.41;;;7.32;100.00
18795;BME280;29610;49.022;12.114;2024-02-16T00:20:10;97762.72;;;7.44;100.00
18795;BME280;29610;49.022;12.114;2024-02-16T00:22:40;97758.63;;;7.47;100.00
18795;BME280;29610;49.022;12.114;2024-02-16T00:25:10;97760.22;;;7.62;100.00
18795;BME280;29610;49.022;12.114;2024-02-16T00:27:38;97757.28;;;7.31;100.00
18795;BME280;29610;49.022;12.114;2024-02-16T00:30:09;97763.44;;;7.36;100.00
18795;BME280;29610;49.022;12.114;2024-02-16T00:32:38;97757.50;;;7.21;100.00
18795;BME280;29610;49.022;12.114;2024-02-16T00:35:07;97753.84;;;6.98;100.00
18795;BME280;29610;49.022;12.114;2024-02-16T00:37:36;97761.44;;;6.96;100.00
18795;BME280;29610;49.022;12.114;2024-02-16T00:40:06;97755.34;;;7.04;100.00
18795;BME280;29610;49.022;12.114;2024-02-16T00:42:37;97752.34;;;6.92;100.00
18795;BME280;29610;49.022;12.114;2024-02-16T00:45:06;97753.88;;;6.80;100.00
18795;BME280;29610;49.022;12.114;2024-02-16T00:47:35;97757.63;;;6.97;100.00
18795;BME280;29610;49.022;12.114;2024-02-16T00:50:04;97761.22;;;6.93;100.00
18795;BME280;29610;49.022;12.114;2024-02-16T00:52:36;97751.91;;;6.99;100.00
18795;BME280;29610;49.022;12.114;2024-02-16T00:55:06;97753.66;;;7.08;100.00
18795;BME280;29610;49.022;12.114;2024-02-16T00:57:34;97750.75;;;7.05;100.00
18795;BME280;29610;49.022;12.114;2024-02-16T01:00:06;97754.72;;;6.62;100.00
18795;BME280;29610;49.022;12.114;2024-02-16T01:02:36;97753.16;;;6.74;100.00
18795;BME280;29610;49.022;12.114;2024-02-16T01:05:05;97750.03;;;6.67;100.00
18795;BME280;29610;49.022;12.114;2024-02-16T01:07:33;97745.00;;;6.79;100.00
18795;BME280;29610;49.022;12.114;2024-02-16T01:10:02;97757.91;;;6.82;100.00
18795;BME280;29610;49.022;12.114;2024-02-16T01:12:31;97756.00;;;6.83;100.00
18795;BME280;29610;49.022;12.114;2024-02-16T01:14:59;97762.56;;;6.77;100.00
18795;BME280;29610;49.022;12.114;2024-02-16T01:17:29;97763.47;;;6.72;100.00
18795;BME280;29610;49.022;12.114;2024-02-16T01:19:59;97762.47;;;6.68;100.00
18795;BME280;29610;49.022;12.114;2024-02-16T01:22:28;97757.91;;;6.64;100.00
18795;BME280;29610;49.022;12.114;2024-02-16T01:24:57;97757.56;;;6.52;100.00
18795;BME280;29610;49.022;12.114;2024-02-16T01:27:25;97762.13;;;6.38;100.00
18795;BME280;29610;49.022;12.114;2024-02-16T01:29:54;97753.22;;;6.19;100.00
18795;BME280;29610;49.022;12.114;2024-02-16T01:32:23;97752.50;;;6.32;100.00
18795;BME280;29610;49.022;12.114;2024-02-16T01:34:52;97757.22;;;6.40;100.00
18795;BME280;29610;49.022;12.114;2024-02-16T01:37:21;97758.81;;;6.41;100.00
18795;BME280;29610;49.022;12.114;2024-02-16T01:39:49;97755.25;;;6.27;100.00
18795;BME280;29610;49.022;12.114;2024-02-16T01:42:17;97750.13;;;6.44;100.00
18795;BME280;29610;49.022;12.114;2024-02-16T01:44:45;97747.81;;;6.56;100.00
18795;BME280;29610;49.022;12.114;2024-02-16T01:47:15;97747.69;;;6.61;100.00
18795;BME280;29610;49.022;12.114;2024-02-16T01:49:44;97750.53;;;6.69;100.00
18795;BME280;29610;49.022;12.114;2024-02-16T01:52:13;97746.56;;;6.48;100.00
18795;BME280;29610;49.022;12.114;2024-02-16T01:54:42;97739.16;;;6.72;100.00
18795;BME280;29610;49.022;12.114;2024-02-16T01:57:11;97739.63;;;6.42;100.00
18795;BME280;29610;49.022;12.114;2024-02-16T01:59:40;97734.03;;;6.20;100.00
18795;BME280;29610;49.022;12.114;2024-02-16T02:02:09;97745.47;;;6.31;100.00
18795;BME280;29610;49.022;12.114;2024-02-16T02:04:38;97734.75;;;6.44;100.00
18795;BME280;29610;49.022;12.114;2024-02-16T02:07:13;97727.53;;;6.40;100.00
18795;BME280;29610;49.022;12.114;2024-02-16T02:09:42;97732.84;;;6.45;100.00
18795;BME280;29610;49.022;12.114;2024-02-16T02:12:11;97710.53;;;6.39;100.00
18795;BME280;29610;49.022;12.114;2024-02-16T02:14:39;97702.22;;;6.36;100.00
18795;BME280;29610;49.022;12.114;2024-02-16T02:17:08;97694.34;;;6.39;100.00
18795;BME280;29610;49.022;12.114;2024-02-16T02:19:37;97696.09;;;6.30;100.00
18795;BME280;29610;49.022;12.114;2024-02-16T02:22:14;97686.03;;;6.36;100.00
18795;BME280;29610;49.022;12.114;2024-02-16T02:24:42;97690.88;;;6.52;100.00
18795;BME280;29610;49.022;12.114;2024-02-16T02:27:11;97688.66;;;6.73;100.00
18795;BME280;29610;49.022;12.114;2024-02-16T02:29:41;97695.78;;;6.96;100.00
18795;BME280;29610;49.022;12.114;2024-02-16T02:41:52;97698.81;;;7.48;100.00
18795;BME280;29610;49.022;12.114;2024-02-16T02:44:39;97700.34;;;7.55;100.00
18795;BME280;29610;49.022;12.114;2024-02-16T02:47:25;97698.81;;;7.48;100.00
18795;BME280;29610;49.022;12.114;2024-02-16T02:50:13;97706.84;;;7.40;100.00
18795;BME280;29610;49.022;12.114;2024-02-16T02:52:41;97709.16;;;7.19;100.00
18795;BME280;29610;49.022;12.114;2024-02-16T02:55:12;97705.75;;;6.82;100.00
18795;BME280;29610;49.022;12.114;2024-02-16T02:57:42;97706.50;;;6.87;100.00
18795;BME280;29610;49.022;12.114;2024-02-16T03:00:11;97709.81;;;6.66;100.00
18795;BME280;29610;49.022;12.114;2024-02-16T03:02:40;97703.66;;;6.79;100.00
18795;BME280;29610;49.022;12.114;2024-02-16T03:05:10;97692.03;;;6.78;100.00
18795;BME280;29610;49.022;12.114;2024-02-16T03:07:39;97699.38;;;6.91;100.00
18795;BME280;29610;49.022;12.114;2024-02-16T03:10:08;97693.47;;;6.89;100.00
18795;BME280;29610;49.022;12.114;2024-02-16T03:12:37;97685.38;;;6.89;100.00
18795;BME280;29610;49.022;12.114;2024-02-16T03:15:08;97687.75;;;6.91;100.00
18795;BME280;29610;49.022;12.114;2024-02-16T03:17:36;97685.22;;;6.67;100.00
18795;BME280;29610;49.022;12.114;2024-02-16T03:20:06;97689.09;;;6.61;100.00
18795;BME280;29610;49.022;12.114;2024-02-16T03:22:35;97688.56;;;6.78;100.00
18795;BME280;29610;49.022;12.114;2024-02-16T03:25:05;97689.25;;;6.83;100.00
18795;BME280;29610;49.022;12.114;2024-02-16T03:27:33;97692.22;;;7.00;100.00
18795;BME280;29610;49.022;12.114;2024-02-16T03:30:02;97688.63;;;7.18;100.00
18795;BME280;29610;49.022;12.114;2024-02-16T03:32:33;97699.03;;;7.25;100.00
18795;BME280;29610;49.022;12.114;2024-02-16T03:35:01;97694.63;;;7.15;100.00
18795;BME280;29610;49.022;12.114;2024-02-16T03:37:29;97695.03;;;7.22;100.00
18795;BME280;29610;49.022;12.114;2024-02-16T03:39:57;97695.53;;;7.11;100.00
18795;BME280;29610;49.022;12.114;2024-02-16T03:42:26;97706.25;;;7.16;100.00
18795;BME280;29610;49.022;12.114;2024-02-16T03:44:54;97702.59;;;6.93;100.00
18795;BME280;29610;49.022;12.114;2024-02-16T03:47:23;97707.25;;;6.42;100.00
18795;BME280;29610;49.022;12.114;2024-02-16T03:49:53;97715.72;;;6.17;100.00
18795;BME280;29610;49.022;12.114;2024-02-16T03:52:22;97719.78;;;6.15;100.00
18795;BME280;29610;49.022;12.114;2024-02-16T03:54:50;97725.13;;;6.20;100.00
18795;BME280;29610;49.022;12.114;2024-02-16T03:57:18;97726.53;;;6.17;100.00
18795;BME280;29610;49.022;12.114;2024-02-16T03:59:47;97732.94;;;6.03;100.00
18795;BME280;29610;49.022;12.114;2024-02-16T04:02:15;97730.47;;;6.06;100.00
18795;BME280;29610;49.022;12.114;2024-02-16T04:04:44;97729.81;;;6.14;100.00
18795;BME280;29610;49.022;12.114;2024-02-16T04:07:13;97732.97;;;6.53;100.00
18795;BME280;29610;49.022;12.114;2024-02-16T04:09:42;97731.97;;;6.49;100.00
18795;BME280;29610;49.022;12.114;2024-02-16T04:12:10;97738.59;;;6.57;100.00
18795;BME280;29610;49.022;12.114;2024-02-16T04:14:38;97747.50;;;6.39;100.00
18795;BME280;29610;49.022;12.114;2024-02-16T04:17:08;97750.28;;;6.34;100.00
18795;BME280;29610;49.022;12.114;2024-02-16T04:19:36;97754.06;;;6.51;100.00
18795;BME280;29610;49.022;12.114;2024-02-16T04:22:05;97758.72;;;6.64;100.00
18795;BME280;29610;49.022;12.114;2024-02-16T04:24:35;97755.16;;;6.50;100.00
18795;BME280;29610;49.022;12.114;2024-02-16T04:27:03;97752.03;;;6.43;100.00
18795;BME280;29610;49.022;12.114;2024-02-16T04:29:35;97760.06;;;6.30;100.00
18795;BME280;29610;49.022;12.114;2024-02-16T04:32:04;97763.69;;;6.39;100.00
18795;BME280;29610;49.022;12.114;2024-02-16T04:34:32;97758.38;;;6.52;100.00
18795;BME280;29610;49.022;12.114;2024-02-16T04:37:01;97761.16;;;6.29;100.00
18795;BME280;29610;49.022;12.114;2024-02-16T04:39:29;97754.59;;;6.35;100.00
18795;BME280;29610;49.022;12.114;2024-02-16T04:41:59;97761.91;;;6.16;100.00
18795;BME280;29610;49.022;12.114;2024-02-16T04:44:27;97762.91;;;6.20;100.00
18795;BME280;29610;49.022;12.114;2024-02-16T04:46:56;97758.97;;;6.12;100.00
18795;BME280;29610;49.022;12.114;2024-02-16T04:49:24;97763.13;;;6.60;100.00
18795;BME280;29610;49.022;12.114;2024-02-16T04:51:52;97762.31;;;6.60;100.00
18795;BME280;29610;49.022;12.114;2024-02-16T04:54:20;97763.56;;;6.49;100.00
18795;BME280;29610;49.022;12.114;2024-02-16T04:56:49;97761.88;;;6.71;100.00
18795;BME280;29610;49.022;12.114;2024-02-16T04:59:19;97757.72;;;6.42;100.00
18795;BME280;29610;49.022;12.114;2024-02-16T05:01:47;97754.53;;;6.40;100.00
18795;BME280;29610;49.022;12.114;2024-02-16T05:04:15;97754.72;;;6.62;100.00
18795;BME280;29610;49.022;12.114;2024-02-16T05:06:45;97748.75;;;6.78;100.00
18795;BME280;29610;49.022;12.114;2024-02-16T05:09:14;97747.78;;;6.88;100.00
18795;BME280;29610;49.022;12.114;2024-02-16T05:11:44;97742.06;;;6.76;100.00
18795;BME280;29610;49.022;12.114;2024-02-16T05:14:12;97745.22;;;6.64;100.00
18795;BME280;29610;49.022;12.114;2024-02-16T05:16:44;97742.84;;;6.44;100.00
18795;BME280;29610;49.022;12.114;2024-02-16T05:19:12;97741.00;;;6.90;100.00
18795;BME280;29610;49.022;12.114;2024-02-16T05:21:41;97738.41;;;6.99;100.00
18795;BME280;29610;49.022;12.114;2024-02-16T05:24:09;97732.22;;;6.66;100.00
18795;BME280;29610;49.022;12.114;2024-02-16T05:26:37;97738.53;;;6.62;100.00
18795;BME280;29610;49.022;12.114;2024-02-16T05:29:05;97743.97;;;6.75;100.00
18795;BME280;29610;49.022;12.114;2024-02-16T05:31:34;97734.47;;;6.78;100.00
18795;BME280;29610;49.022;12.114;2024-02-16T05:34:03;97733.13;;;6.94;100.00
18795;BME280;29610;49.022;12.114;2024-02-16T05:36:31;97729.53;;;6.98;100.00
18795;BME280;29610;49.022;12.114;2024-02-16T05:39:03;97732.06;;;6.76;100.00
18795;BME280;29610;49.022;12.114;2024-02-16T05:41:47;97744.00;;;6.89;100.00
18795;BME280;29610;49.022;12.114;2024-02-16T05:44:15;97734.78;;;6.58;100.00
18795;BME280;29610;49.022;12.114;2024-02-16T05:46:44;97737.63;;;6.66;100.00
18795;BME280;29610;49.022;12.114;2024-02-16T05:49:15;97734.88;;;6.85;100.00
18795;BME280;29610;49.022;12.114;2024-02-16T05:51:44;97738.06;;;6.73;100.00
18795;BME280;29610;49.022;12.114;2024-02-16T05:54:30;97739.66;;;6.74;100.00
18795;BME280;29610;49.022;12.114;2024-02-16T05:57:04;97738.78;;;6.79;100.00
18795;BME280;29610;49.022;12.114;2024-02-16T05:59:32;97739.91;;;6.91;100.00
18795;BME280;29610;49.022;12.114;2024-02-16T06:02:00;97735.63;;;6.72;100.00
18795;BME280;29610;49.022;12.114;2024-02-16T06:04:30;97747.41;;;6.94;100.00
18795;BME280;29610;49.022;12.114;2024-02-16T06:06:58;97743.25;;;7.02;100.00
18795;BME280;29610;49.022;12.114;2024-02-16T06:09:27;97748.16;;;7.13;100.00
18795;BME280;29610;49.022;12.114;2024-02-16T06:12:02;97747.34;;;6.99;100.00
18795;BME280;29610;49.022;12.114;2024-02-16T06:14:34;97748.06;;;7.05;100.00
18795;BME280;29610;49.022;12.114;2024-02-16T06:17:04;97749.13;;;6.90;100.00
18795;BME280;29610;49.022;12.114;2024-02-16T06:19:34;97747.28;;;7.18;100.00
18795;BME280;29610;49.022;12.114;2024-02-16T06:22:03;97751.22;;;6.93;100.00
18795;BME280;29610;49.022;12.114;2024-02-16T06:24:31;97757.91;;;6.96;100.00
18795;BME280;29610;49.022;12.114;2024-02-16T06:27:00;97750.03;;;6.99;100.00
18795;BME280;29610;49.022;12.114;2024-02-16T06:29:28;97748.72;;;7.29;100.00
18795;BME280;29610;49.022;12.114;2024-02-16T06:31:58;97754.06;;;7.02;100.00
18795;BME280;29610;49.022;12.114;2024-02-16T06:34:26;97757.28;;;7.17;100.00
18795;BME280;29610;49.022;12.114;2024-02-16T06:36:56;97750.59;;;7.28;100.00
18795;BME280;29610;49.022;12.114;2024-02-16T06:39:24;97759.53;;;7.42;100.00
18795;BME280;29610;49.022;12.114;2024-02-16T06:41:53;97760.34;;;7.43;100.00
18795;BME280;29610;49.022;12.114;2024-02-16T06:44:21;97765.03;;;7.51;100.00
18795;BME280;29610;49.022;12.114;2024-02-16T06:46:51;97768.44;;;7.57;100.00
18795;BME280;29610;49.022;12.114;2024-02-16T06:49:19;97767.84;;;7.60;100.00
18795;BME280;29610;49.022;12.114;2024-02-16T06:51:47;97771.97;;;7.71;100.00
18795;BME280;29610;49.022;12.114;2024-02-16T06:54:17;97778.09;;;7.90;100.00
18795;BME280;29610;49.022;12.114;2024-02-16T06:56:45;97770.44;;;8.05;100.00
18795;BME280;29610;49.022;12.114;2024-02-16T06:59:14;97775.63;;;8.29;100.00
18795;BME280;29610;49.022;12.114;2024-02-16T07:01:42;97774.09;;;8.50;100.00
18795;BME280;29610;49.022;12.114;2024-02-16T07:04:11;97777.47;;;8.55;100.00
18795;BME280;29610;49.022;12.114;2024-02-16T07:06:39;97783.28;;;8.62;100.00
18795;BME280;29610;49.022;12.114;2024-02-16T07:09:07;97771.31;;;8.85;100.00
18795;BME280;29610;49.022;12.114;2024-02-16T07:11:37;97769.91;;;8.88;100.00
18795;BME280;29610;49.022;12.114;2024-02-16T07:14:05;97770.13;;;8.92;100.00
18795;BME280;29610;49.022;12.114;2024-02-16T07:16:35;97763.34;;;9.11;100.00
18795;BME280;29610;49.022;12.114;2024-02-16T07:19:03;97764.41;;;9.24;100.00
18795;BME280;29610;49.022;12.114;2024-02-16T07:21:32;97766.19;;;9.28;100.00
18795;BME280;29610;49.022;12.114;2024-02-16T07:24:00;97774.50;;;9.32;100.00
18795;BME280;29610;49.022;12.114;2024-02-16T07:26:29;97786.06;;;9.46;100.00
18795;BME280;29610;49.022;12.114;2024-02-16T07:28:59;97787.16;;;9.45;100.00
18795;BME280;29610;49.022;12.114;2024-02-16T07:31:32;97779.59;;;9.64;100.00
18795;BME280;29610;49.022;12.114;2024-02-16T07:34:01;97775.97;;;9.77;100.00
18795;BME280;29610;49.022;12.114;2024-02-16T07:36:30;97780.00;;;9.79;100.00
18795;BME280;29610;49.022;12.114;2024-02-16T07:38:59;97787.22;;;9.92;100.00
18795;BME280;29610;49.022;12.114;2024-02-16T07:41:27;97798.25;;;9.96;100.00
18795;BME280;29610;49.022;12.114;2024-02-16T07:43:55;97808.00;;;9.97;100.00
18795;BME280;29610;49.022;12.114;2024-02-16T07:46:25;97809.16;;;10.04;100.00
18795;BME280;29610;49.022;12.114;2024-02-16T07:48:53;97808.91;;;10.14;100.00
18795;BME280;29610;49.022;12.114;2024-02-16T07:51:22;97816.59;;;10.29;100.00
18795;BME280;29610;49.022;12.114;2024-02-16T07:53:51;97815.94;;;10.32;100.00
18795;BME280;29610;49.022;12.114;2024-02-16T07:56:19;97818.69;;;10.41;100.00
18795;BME280;29610;49.022;12.114;2024-02-16T07:58:48;97813.44;;;10.45;100.00
18795;BME280;29610;49.022;12.114;2024-02-16T08:01:16;97822.53;;;10.49;100.00
18795;BME280;29610;49.022;12.114;2024-02-16T08:03:46;97826.22;;;10.53;100.00
18795;BME280;29610;49.022;12.114;2024-02-16T08:06:15;97823.50;;;10.53;100.00
18795;BME280;29610;49.022;12.114;2024-02-16T08:08:46;97827.19;;;10.48;100.00
18795;BME280;29610;49.022;12.114;2024-02-16T08:11:15;97831.06;;;10.64;100.00
18795;BME280;29610;49.022;12.114;2024-02-16T08:13:43;97829.44;;;10.55;100.00
18795;BME280;29610;49.022;12.114;2024-02-16T08:16:11;97824.81;;;10.64;100.00
18795;BME280;29610;49.022;12.114;2024-02-16T08:18:39;97825.63;;;10.64;100.00
18795;BME280;29610;49.022;12.114;2024-02-16T08:21:09;97828.16;;;10.78;100.00
18795;BME280;29610;49.022;12.114;2024-02-16T08:23:37;97838.09;;;10.82;100.00
18795;BME280;29610;49.022;12.114;2024-02-16T08:26:06;97840.81;;;10.91;100.00
18795;BME280;29610;49.022;12.114;2024-02-16T08:28:34;97825.91;;;10.88;100.00
18795;BME280;29610;49.022;12.114;2024-02-16T08:31:02;97826.75;;;10.97;100.00
18795;BME280;29610;49.022;12.114;2024-02-16T08:33:30;97829.59;;;11.09;100.00
18795;BME280;29610;49.022;12.114;2024-02-16T08:35:59;97825.59;;;11.15;100.00
18795;BME280;29610;49.022;12.114;2024-02-16T08:38:29;97821.59;;;11.30;100.00
18795;BME280;29610;49.022;12.114;2024-02-16T08:40:57;97834.84;;;11.48;100.00
18795;BME280;29610;49.022;12.114;2024-02-16T08:43:26;97827.03;;;11.38;100.00
18795;BME280;29610;49.022;12.114;2024-02-16T08:45:55;97823.78;;;11.70;100.00
18795;BME280;29610;49.022;12.114;2024-02-16T08:48:24;97829.56;;;11.52;100.00
18795;BME280;29610;49.022;12.114;2024-02-16T08:50:53;97829.03;;;11.58;100.00
18795;BME280;29610;49.022;12.114;2024-02-16T08:53:21;97822.59;;;11.89;100.00
18795;BME280;29610;49.022;12.114;2024-02-16T08:55:50;97822.94;;;12.16;100.00
18795;BME280;29610;49.022;12.114;2024-02-16T08:58:19;97821.06;;;12.37;100.00
18795;BME280;29610;49.022;12.114;2024-02-16T09:00:47;97818.84;;;12.31;100.00
18795;BME280;29610;49.022;12.114;2024-02-16T09:03:17;97822.75;;;12.50;100.00
18795;BME280;29610;49.022;12.114;2024-02-16T09:05:45;97824.09;;;12.44;100.00
18795;BME280;29610;49.022;12.114;2024-02-16T09:08:13;97813.03;;;12.12;100.00
18795;BME280;29610;49.022;12.114;2024-02-16T09:10:41;97818.91;;;12.22;100.00
18795;BME280;29610;49.022;12.114;2024-02-16T09:13:11;97815.19;;;11.98;100.00
18795;BME280;29610;49.022;12.114;2024-02-16T09:15:39;97821.94;;;12.21;100.00
18795;BME280;29610;49.022;12.114;2024-02-16T09:18:07;97815.81;;;12.32;100.00
18795;BME280;29610;49.022;12.114;2024-02-16T09:20:36;97809.31;;;12.16;100.00
18795;BME280;29610;49.022;12.114;2024-02-16T09:23:04;97818.75;;;12.48;100.00
18795;BME280;29610;49.022;12.114;2024-02-16T09:25:33;97820.56;;;12.64;100.00
18795;BME280;29610;49.022;12.114;2024-02-16T09:28:02;97822.50;;;12.64;100.00
18795;BME280;29610;49.022;12.114;2024-02-16T09:30:34;97815.31;;;12.80;100.00
18795;BME280;29610;49.022;12.114;2024-02-16T09:33:02;97816.25;;;12.63;100.00
18795;BME280;29610;49.022;12.114;2024-02-16T09:35:31;97820.06;;;12.71;100.00
18795;BME280;29610;49.022;12.114;2024-02-16T09:37:59;97820.97;;;12.54;100.00
18795;BME280;29610;49.022;12.114;2024-02-16T09:40:27;97814.94;;;12.69;100.00
18795;BME280;29610;49.022;12.114;2024-02-16T09:42:56;97816.81;;;12.77;100.00
18795;BME280;29610;49.022;12.114;2024-02-16T09:45:27;97817.00;;;12.72;100.00
18795;BME280;29610;49.022;12.114;2024-02-16T09:47:58;97821.25;;;12.61;100.00
18795;BME280;29610;49.022;12.114;2024-02-16T09:50:33;97822.31;;;12.69;100.00
18795;BME280;29610;49.022;12.114;2024-02-16T09:53:05;97824.97;;;12.77;100.00
18795;BME280;29610;49.022;12.114;2024-02-16T09:55:35;97820.97;;;12.75;100.00
18795;BME280;29610;49.022;12.114;2024-02-16T09:58:04;97825.19;;;12.93;100.00
18795;BME280;29610;49.022;12.114;2024-02-16T10:00:32;97829.25;;;13.07;100.00
18795;BME280;29610;49.022;12.114;2024-02-16T10:03:03;97824.34;;;13.01;100.00
18795;BME280;29610;49.022;12.114;2024-02-16T10:05:31;97833.59;;;13.29;100.00
18795;BME280;29610;49.022;12.114;2024-02-16T10:07:59;97828.00;;;13.05;100.00
18795;BME280;29610;49.022;12.114;2024-02-16T10:10:39;97837.84;;;13.18;100.00
18795;BME280;29610;49.022;12.114;2024-02-16T10:13:07;97838.03;;;13.34;100.00
18795;BME280;29610;49.022;12.114;2024-02-16T10:15:38;97843.25;;;13.71;100.00
18795;BME280;29610;49.022;12.114;2024-02-16T10:18:07;97839.88;;;14.31;100.00
18795;BME280;29610;49.022;12.114;2024-02-16T10:20:38;97829.00;;;14.71;100.00
18795;BME280;29610;49.022;12.114;2024-02-16T10:23:10;97835.13;;;14.80;100.00
18795;BME280;29610;49.022;12.114;2024-02-16T10:25:39;97838.16;;;15.42;100.00
18795;BME280;29610;49.022;12.114;2024-02-16T10:28:10;97839.97;;;15.93;100.00
18795;BME280;29610;49.022;12.114;2024-02-16T10:30:42;97837.88;;;16.18;100.00
18795;BME280;29610;49.022;12.114;2024-02-16T10:33:13;97832.28;;;16.14;100.00
18795;BME280;29610;49.022;12.114;2024-02-16T10:35:43;97834.13;;;16.10;100.00
18795;BME280;29610;49.022;12.114;2024-02-16T10:38:12;97822.63;;;15.89;100.00
18795;BME280;29610;49.022;12.114;2024-02-16T10:40:41;97828.97;;;15.62;100.00
18795;BME280;29610;49.022;12.114;2024-02-16T10:43:13;97834.63;;;15.69;100.00
18795;BME280;29610;49.022;12.114;2024-02-16T10:45:43;97831.78;;;15.65;100.00
18795;BME280;29610;49.022;12.114;2024-02-16T10:48:13;97832.84;;;15.76;100.00
18795;BME280;29610;49.022;12.114;2024-02-16T10:50:42;97825.44;;;15.77;100.00
18795;BME280;29610;49.022;12.114;2024-02-16T10:53:18;97834.38;;;15.46;100.00
18795;BME280;29610;49.022;12.114;2024-02-16T10:55:48;97831.78;;;15.65;100.00
18795;BME280;29610;49.022;12.114;2024-02-16T10:58:18;97818.72;;;15.74;100.00
18795;BME280;29610;49.022;12.114;2024-02-16T11:00:51;97823.63;;;15.96;100.00
18795;BME280;29610;49.022;12.114;2024-02-16T11:03:24;97815.22;;;16.05;100.00
18795;BME280;29610;49.022;12.114;2024-02-16T11:05:54;97814.88;;;16.06;100.00
18795;BME280;29610;49.022;12.114;2024-02-16T11:08:25;97813.97;;;16.18;100.00
18795;BME280;29610;49.022;12.114;2024-02-16T11:10:57;97810.53;;;16.05;100.00
18795;BME280;29610;49.022;12.114;2024-02-16T11:13:26;97816.16;;;15.81;100.00
18795;BME280;29610;49.022;12.114;2024-02-16T11:15:59;97817.22;;;15.92;100.00
18795;BME280;29610;49.022;12.114;2024-02-16T11:18:31;97808.59;;;16.06;100.00
18795;BME280;29610;49.022;12.114;2024-02-16T11:21:00;97817.50;;;16.03;100.00
18795;BME280;29610;49.022;12.114;2024-02-16T11:23:31;97807.41;;;16.38;100.00
18795;BME280;29610;49.022;12.114;2024-02-16T11:26:03;97813.50;;;16.97;100.00
18795;BME280;29610;49.022;12.114;2024-02-16T11:28:34;97807.75;;;17.60;100.00
18795;BME280;29610;49.022;12.114;2024-02-16T11:31:04;97801.44;;;18.01;100.00
18795;BME280;29610;49.022;12.114;2024-02-16T11:33:34;97801.78;;;18.22;100.00
18795;BME280;29610;49.022;12.114;2024-02-16T11:36:05;97796.69;;;18.24;100.00
18795;BME280;29610;49.022;12.114;2024-02-16T11:38:35;97798.19;;;18.40;100.00
18795;BME280;29610;49.022;12.114;2024-02-16T11:41:06;97791.97;;;18.99;100.00
18795;BME280;29610;49.022;12.114;2024-02-16T11:43:35;97779.72;;;19.26;100.00
18795;BME280;29610;49.022;12.114;2024-02-16T11:46:13;97787.94;;;19.52;100.00
18795;BME280;29610;49.022;12.114;2024-02-16T11:48:43;97784.63;;;18.54;100.00
18795;BME280;29610;49.022;12.114;2024-02-16T11:51:15;97777.03;;;18.44;100.00
18795;BME280;29610;49.022;12.114;2024-02-16T11:53:44;97777.94;;;18.52;100.00
18795;BME280;29610;49.022;12.114;2024-02-16T11:56:22;97781.13;;;18.09;100.00
18795;BME280;29610;49.022;12.114;2024-02-16T11:58:51;97788.91;;;17.81;100.00
18795;BME280;29610;49.022;12.114;2024-02-16T12:01:19;97783.66;;;17.95;100.00
18795;BME280;29610;49.022;12.114;2024-02-16T12:03:50;97775.13;;;18.26;100.00
18795;BME280;29610;49.022;12.114;2024-02-16T12:06:21;97776.34;;;18.28;100.00
18795;BME280;29610;49.022;12.114;2024-02-16T12:08:51;97771.28;;;18.82;100.00
18795;BME280;29610;49.022;12.114;2024-02-16T12:11:20;97774.13;;;19.19;100.00
18795;BME280;29610;49.022;12.114;2024-02-16T12:13:50;97772.13;;;19.16;100.00
18795;BME280;29610;49.022;12.114;2024-02-16T12:16:19;97763.28;;;19.04;100.00
18795;BME280;29610;49.022;12.114;2024-02-16T12:18:49;97769.13;;;19.28;96.31
18795;BME280;29610;49.022;12.114;2024-02-16T12:21:18;97764.72;;;19.24;99.23
18795;BME280;29610;49.022;12.114;2024-02-16T12:23:48;97774.81;;;18.83;98.53
18795;BME280;29610;49.022;12.114;2024-02-16T12:26:17;97770.56;;;18.37;100.00
18795;BME280;29610;49.022;12.114;2024-02-16T12:28:45;97769.34;;;18.08;100.00
18795;BME280;29610;49.022;12.114;2024-02-16T12:31:19;97761.06;;;18.31;100.00
18795;BME280;29610;49.022;12.114;2024-02-16T12:33:47;97762.25;;;18.33;100.00
18795;BME280;29610;49.022;12.114;2024-02-16T12:36:17;97765.06;;;18.37;100.00
18795;BME280;29610;49.022;12.114;2024-02-16T12:38:45;97767.06;;;18.36;100.00
18795;BME280;29610;49.022;12.114;2024-02-16T12:41:14;97770.13;;;18.31;100.00
18795;BME280;29610;49.022;12.114;2024-02-16T12:43:42;97769.44;;;18.38;100.00
18795;BME280;29610;49.022;12.114;2024-02-16T12:46:10;97761.97;;;18.38;100.00
18795;BME280;29610;49.022;12.114;2024-02-16T12:48:39;97769.03;;;18.13;100.00
18795;BME280;29610;49.022;12.114;2024-02-16T12:51:07;97760.03;;;18.39;100.00
18795;BME280;29610;49.022;12.114;2024-02-16T12:53:39;97755.44;;;18.24;100.00
18795;BME280;29610;49.022;12.114;2024-02-16T12:56:09;97759.59;;;18.14;100.00
18795;BME280;29610;49.022;12.114;2024-02-16T12:58:37;97752.97;;;18.67;100.00
18795;BME280;29610;49.022;12.114;2024-02-16T13:01:06;97757.53;;;18.82;100.00
18795;BME280;29610;49.022;12.114;2024-02-16T13:03:46;97758.97;;;19.03;100.00
18795;BME280;29610;49.022;12.114;2024-02-16T13:06:15;97758.22;;;18.76;100.00